createdAt,value
2019-06-27T00:01:10.021Z,98508.11
2019-06-27T00:03:44.425Z,98495.95
2019-06-27T00:06:19.135Z,98504.69
2019-06-27T00:08:53.638Z,98507.53
2019-06-27T00:11:28.441Z,98502.62
2019-06-27T00:14:02.920Z,98509.12
2019-06-27T00:16:37.280Z,98500.03
2019-06-27T00:19:11.765Z,98500.63
2019-06-27T00:21:46.278Z,98498.53
2019-06-27T00:27:47.859Z,98479.58
2019-06-27T00:30:22.636Z,98499.19
2019-06-27T00:32:56.947Z,98502.59
2019-06-27T00:35:31.283Z,98503.73
2019-06-27T00:38:05.777Z,98503.73
2019-06-27T00:40:38.649Z,98507.39
2019-06-27T00:43:12.946Z,98505.48
2019-06-27T00:45:47.112Z,98503.60
2019-06-27T00:48:21.686Z,98510.48
2019-06-27T00:53:35.782Z,98507.08
2019-06-27T00:56:08.853Z,98507.08
2019-06-27T00:58:43.273Z,98509.92
2019-06-27T01:01:17.720Z,98513.55
2019-06-27T01:03:52.095Z,98505.59
2019-06-27T01:06:26.672Z,98503.88
2019-06-27T01:09:00.947Z,98503.88
2019-06-27T01:11:36.778Z,98504.83
2019-06-27T01:14:09.710Z,98502.17
2019-06-27T01:16:43.945Z,98511.47
2019-06-27T01:19:18.272Z,98488.50
2019-06-27T01:21:53.277Z,98488.50
2019-06-27T01:24:27.667Z,98507.83
2019-06-27T01:27:02.102Z,98515.95
2019-06-27T01:29:36.307Z,98513.09
2019-06-27T01:32:10.777Z,98513.09
2019-06-27T01:34:45.080Z,98514.59
2019-06-27T01:37:19.656Z,98524.27
2019-06-27T01:39:53.627Z,98524.27
2019-06-27T01:42:27.917Z,98519.36
2019-06-27T01:45:08.269Z,98531.82
2019-06-27T01:47:42.657Z,98531.82
2019-06-27T01:50:16.940Z,98532.23
2019-06-27T01:52:52.270Z,98532.22
2019-06-27T01:55:26.677Z,98535.07
2019-06-27T01:57:59.689Z,98536.56
2019-06-27T02:00:34.253Z,98537.68
2019-06-27T02:05:47.664Z,98526.94
2019-06-27T02:08:22.273Z,98526.94
2019-06-27T02:10:56.958Z,98546.09
2019-06-27T02:13:31.309Z,98546.86
2019-06-27T02:16:05.942Z,98546.05
2019-06-27T02:18:40.294Z,98548.55
2019-06-27T02:21:14.760Z,98543.98
2019-06-27T02:23:47.674Z,98540.16
2019-06-27T02:26:22.083Z,98538.29
2019-06-27T02:28:56.317Z,98531.43
2019-06-27T02:31:30.889Z,98531.43
2019-06-27T02:34:07.102Z,98528.84
2019-06-27T02:36:58.356Z,98521.59
2019-06-27T02:39:33.951Z,98521.59
2019-06-27T02:42:08.646Z,98532.02
2019-06-27T02:44:43.078Z,98535.02
2019-06-27T02:47:17.649Z,98540.05
2019-06-27T02:49:51.092Z,98540.05
2019-06-27T02:52:25.295Z,98536.81
2019-06-27T02:54:59.707Z,98545.13
2019-06-27T02:57:34.131Z,98548.27
2019-06-27T03:00:08.639Z,98544.50
2019-06-27T03:02:42.954Z,98544.50
2019-06-27T03:05:17.708Z,98546.11
2019-06-27T03:07:50.812Z,98546.11
2019-06-27T03:10:25.122Z,98553.37
2019-06-27T03:12:59.731Z,98549.23
2019-06-27T03:15:34.110Z,98555.09
2019-06-27T03:18:08.697Z,98557.67
2019-06-27T03:20:43.096Z,98557.67
2019-06-27T03:23:17.740Z,98556.28
2019-06-27T03:25:51.057Z,98557.90
2019-06-27T03:28:25.305Z,98557.90
2019-06-27T03:30:59.727Z,98558.33
2019-06-27T03:33:34.134Z,98556.59
2019-06-27T03:36:08.623Z,98561.44
2019-06-27T03:38:42.960Z,98561.44
2019-06-27T03:41:17.336Z,98558.92
2019-06-27T03:43:51.947Z,98570.94
2019-06-27T03:46:26.278Z,98562.63
2019-06-27T03:49:00.705Z,98561.98
2019-06-27T03:51:33.867Z,98573.43
2019-06-27T03:54:08.119Z,98573.43
2019-06-27T03:56:42.642Z,98573.55
2019-06-27T03:59:17.240Z,98573.55
2019-06-27T04:01:51.694Z,98577.80
2019-06-27T04:04:26.106Z,98576.62
2019-06-27T04:07:00.864Z,98574.66
2019-06-27T04:09:35.280Z,98574.23
2019-06-27T04:12:09.725Z,98577.60
2019-06-27T04:15:14.701Z,98584.45
2019-06-27T04:17:48.032Z,98582.59
2019-06-27T04:20:22.330Z,98583.64
2019-06-27T04:22:56.950Z,98595.91
2019-06-27T04:25:31.338Z,98594.62
2019-06-27T04:28:05.785Z,98601.03
2019-06-27T04:30:40.268Z,98597.97
2019-06-27T04:33:14.826Z,98603.48
2019-06-27T04:35:48.031Z,98603.92
2019-06-27T04:38:22.279Z,98601.96
2019-06-27T04:40:56.744Z,98615.38
2019-06-27T04:43:32.315Z,98612.30
2019-06-27T04:46:06.886Z,98612.30
2019-06-27T04:48:41.281Z,98604.98
2019-06-27T04:51:15.721Z,98604.74
2019-06-27T04:53:50.145Z,98608.52
2019-06-27T04:56:24.676Z,98613.87
2019-06-27T04:58:57.653Z,98613.87
2019-06-27T05:01:31.956Z,98611.20
2019-06-27T05:04:07.691Z,98613.48
2019-06-27T05:06:41.946Z,98613.48
2019-06-27T05:09:16.277Z,98617.45
2019-06-27T05:11:50.794Z,98620.05
2019-06-27T05:14:23.684Z,98631.34
2019-06-27T05:16:58.327Z,98619.38
2019-06-27T05:19:32.750Z,98628.83
2019-06-27T05:22:05.805Z,98626.00
2019-06-27T05:24:39.959Z,98637.13
2019-06-27T05:27:14.278Z,98636.50
2019-06-27T05:29:49.738Z,98632.82
2019-06-27T05:32:25.700Z,98636.98
2019-06-27T05:35:00.121Z,98628.07
2019-06-27T05:37:34.728Z,98643.73
2019-06-27T05:40:09.643Z,98641.92
2019-06-27T05:42:43.947Z,98634.87
2019-06-27T05:45:19.277Z,98635.53
2019-06-27T05:47:53.807Z,98629.87
2019-06-27T05:50:26.784Z,98633.30
2019-06-27T05:53:00.948Z,98636.02
2019-06-27T05:55:34.854Z,98631.46
2019-06-27T05:58:08.945Z,98634.72
2019-06-27T06:00:44.122Z,98636.45
2019-06-27T06:03:18.696Z,98642.31
2019-06-27T06:05:53.090Z,98643.72
2019-06-27T06:08:27.673Z,98644.17
2019-06-27T06:11:02.287Z,98644.17
2019-06-27T06:13:36.874Z,98659.64
2019-06-27T06:16:12.892Z,98657.98
2019-06-27T06:18:47.273Z,98662.48
2019-06-27T06:21:21.712Z,98670.09
2019-06-27T06:23:56.123Z,98670.09
2019-06-27T06:26:30.675Z,98682.89
2019-06-27T06:29:05.112Z,98674.69
2019-06-27T06:31:39.649Z,98678.52
2019-06-27T06:34:13.952Z,98678.52
2019-06-27T06:36:48.653Z,98692.14
2019-06-27T06:39:23.258Z,98692.14
2019-06-27T06:41:57.704Z,98686.02
2019-06-27T06:44:32.251Z,98684.20
2019-06-27T06:47:06.684Z,98678.47
2019-06-27T06:49:40.942Z,98684.11
2019-06-27T06:52:13.694Z,98680.28
2019-06-27T06:54:48.141Z,98681.71
2019-06-27T06:57:23.638Z,98675.98
2019-06-27T06:59:57.961Z,98675.98
2019-06-27T07:02:32.582Z,98672.61
2019-06-27T07:05:07.358Z,98672.61
2019-06-27T07:07:41.901Z,98677.09
2019-06-27T07:10:17.365Z,98676.98
2019-06-27T07:12:51.927Z,98681.99
2019-06-27T07:15:26.296Z,98680.60
2019-06-27T07:18:00.795Z,98680.38
2019-06-27T07:20:33.791Z,98688.17
2019-06-27T07:23:07.928Z,98686.66
2019-06-27T07:25:42.275Z,98679.36
2019-06-27T07:28:16.681Z,98688.77
2019-06-27T07:30:51.118Z,98685.02
2019-06-27T07:33:25.635Z,98682.65
2019-06-27T07:36:00.941Z,98682.65
2019-06-27T07:38:35.277Z,98676.63
2019-06-27T07:41:10.702Z,98679.03
2019-06-27T07:43:44.109Z,98681.32
2019-06-27T07:46:25.167Z,98679.88
2019-06-27T07:48:55.302Z,98669.78
2019-06-27T07:51:29.892Z,98669.78
2019-06-27T07:54:04.730Z,98680.98
2019-06-27T07:56:39.708Z,98674.27
2019-06-27T07:59:13.039Z,98674.27
2019-06-27T08:01:47.641Z,98676.22
2019-06-27T08:04:22.292Z,98676.22
2019-06-27T08:06:58.271Z,98684.11
2019-06-27T08:09:32.711Z,98674.07
2019-06-27T08:13:07.770Z,98676.55
2019-06-27T08:15:41.951Z,98671.89
2019-06-27T08:18:16.177Z,98671.89
2019-06-27T08:20:50.937Z,98680.36
2019-06-27T08:23:40.542Z,98677.41
2019-06-27T08:26:01.949Z,98677.41
2019-06-27T08:28:36.265Z,98676.89
2019-06-27T08:31:10.753Z,98678.52
2019-06-27T08:33:45.700Z,98667.35
2019-06-27T08:36:19.042Z,98667.35
2019-06-27T08:38:53.659Z,98659.05
2019-06-27T08:43:01.288Z,98659.22
2019-06-27T08:45:35.746Z,98666.44
2019-06-27T08:48:09.086Z,98669.65
2019-06-27T08:50:43.292Z,98668.30
2019-06-27T08:53:17.953Z,98651.81
2019-06-27T08:55:52.345Z,98652.72
2019-06-27T08:58:25.855Z,98649.20
2019-06-27T09:01:00.318Z,98645.77
2019-06-27T09:03:34.917Z,98645.77
2019-06-27T09:06:09.304Z,98648.12
2019-06-27T09:08:43.959Z,98648.12
2019-06-27T09:11:19.114Z,98652.61
2019-06-27T09:13:53.669Z,98647.86
2019-06-27T09:16:26.673Z,98647.86
2019-06-27T09:19:00.939Z,98647.98
2019-06-27T09:21:35.279Z,98654.05
2019-06-27T09:24:09.720Z,98644.34
2019-06-27T09:26:44.339Z,98643.86
2019-06-27T09:29:18.929Z,98639.56
2019-06-27T09:31:53.305Z,98639.55
2019-06-27T09:34:27.750Z,98637.88
2019-06-27T09:37:02.133Z,98636.05
2019-06-27T09:39:36.662Z,98639.56
2019-06-27T09:42:09.644Z,98641.00
2019-06-27T09:44:44.009Z,98633.88
2019-06-27T09:47:18.306Z,98630.37
2019-06-27T09:49:52.866Z,98633.08
2019-06-27T09:52:27.278Z,98635.11
2019-06-27T09:55:01.891Z,98628.32
2019-06-27T09:57:36.615Z,98631.00
2019-06-27T10:00:11.920Z,98631.00
2019-06-27T10:02:46.311Z,98630.21
2019-06-27T10:05:21.066Z,98630.21
2019-06-27T10:07:55.303Z,98624.50
2019-06-27T10:10:29.702Z,98624.50
2019-06-27T10:13:04.269Z,98615.18
2019-06-27T10:15:39.718Z,98620.14
2019-06-27T10:18:12.639Z,98610.92
2019-06-27T10:20:47.684Z,98614.21
2019-06-27T10:23:20.632Z,98614.21
2019-06-27T10:25:54.925Z,98614.89
2019-06-27T10:28:29.279Z,98614.30
2019-06-27T10:31:03.882Z,98614.30
2019-06-27T10:33:38.276Z,98612.24
2019-06-27T10:36:12.856Z,98610.44
2019-06-27T10:38:47.309Z,98612.63
2019-06-27T10:41:21.767Z,98612.63
2019-06-27T10:43:58.325Z,98607.80
2019-06-27T10:46:30.750Z,98605.17
2019-06-27T10:49:03.709Z,98613.39
2019-06-27T10:51:38.083Z,98613.39
2019-06-27T10:54:12.685Z,98606.87
2019-06-27T10:56:47.060Z,98604.24
2019-06-27T10:59:22.644Z,98592.95
2019-06-27T11:01:55.775Z,98592.95
2019-06-27T11:04:28.665Z,98598.30
2019-06-27T11:07:02.950Z,98603.46
2019-06-27T11:09:37.701Z,98596.03
2019-06-27T11:12:12.218Z,98588.63
2019-06-27T11:14:58.566Z,98600.39
2019-06-27T11:17:21.686Z,98583.83
2019-06-27T11:19:55.908Z,98585.52
2019-06-27T11:22:30.344Z,98585.52
2019-06-27T11:25:04.947Z,98592.11
2019-06-27T11:27:40.271Z,98570.10
2019-06-27T11:30:15.598Z,98579.53
2019-06-27T11:32:50.325Z,98565.23
2019-06-27T11:35:24.753Z,98565.23
2019-06-27T11:37:57.699Z,98566.98
2019-06-27T11:40:31.939Z,98566.98
2019-06-27T11:43:06.250Z,98563.91
2019-06-27T11:45:40.706Z,98563.91
2019-06-27T11:48:13.656Z,98561.59
2019-06-27T11:50:47.938Z,98555.78
2019-06-27T11:53:22.351Z,98558.48
2019-06-27T11:55:56.759Z,98557.85
2019-06-27T11:58:29.700Z,98555.92
2019-06-27T12:01:04.103Z,98551.27
2019-06-27T12:03:48.739Z,98548.77
2019-06-27T12:06:14.801Z,98548.77
2019-06-27T12:08:47.854Z,98553.26
2019-06-27T12:11:21.950Z,98561.89
2019-06-27T12:13:56.303Z,98556.86
2019-06-27T12:16:30.728Z,98545.08
2019-06-27T12:19:05.661Z,98546.41
2019-06-27T12:21:38.727Z,98546.41
2019-06-27T12:24:12.889Z,98546.66
2019-06-27T12:26:47.279Z,98553.06
2019-06-27T12:29:21.707Z,98540.11
2019-06-27T12:31:55.950Z,98540.11
2019-06-27T12:34:30.264Z,98540.92
2019-06-27T12:37:04.688Z,98548.00
2019-06-27T12:39:37.688Z,98542.84
2019-06-27T12:42:11.946Z,98543.05
2019-06-27T12:44:47.270Z,98538.75
2019-06-27T12:47:21.863Z,98547.25
2019-06-27T12:50:02.599Z,98550.40
2019-06-27T12:52:32.282Z,98540.94
2019-06-27T12:55:06.893Z,98534.41
2019-06-27T12:57:41.279Z,98534.41
2019-06-27T13:00:16.682Z,98533.84
2019-06-27T13:02:49.686Z,98533.95
2019-06-27T13:05:23.940Z,98525.95
2019-06-27T13:07:58.292Z,98525.47
2019-06-27T13:10:36.937Z,98525.17
2019-06-27T13:13:11.259Z,98517.50
2019-06-27T13:15:45.718Z,98513.58
2019-06-27T13:18:19.927Z,98516.25
2019-06-27T13:20:58.300Z,98512.66
2019-06-27T13:23:30.307Z,98497.98
2019-06-27T13:26:05.233Z,98503.67
2019-06-27T13:28:39.736Z,98503.67
2019-06-27T13:31:13.276Z,98495.94
2019-06-27T13:33:47.653Z,98491.89
2019-06-27T13:36:22.285Z,98494.94
2019-06-27T13:38:57.120Z,98486.62
2019-06-27T13:41:31.732Z,98491.69
2019-06-27T13:44:05.013Z,98485.38
2019-06-27T13:46:39.291Z,98478.39
2019-06-27T13:49:13.917Z,98479.81
2019-06-27T13:51:48.594Z,98474.39
2019-06-27T13:54:21.791Z,98477.67
2019-06-27T13:56:55.141Z,98470.88
2019-06-27T13:59:29.648Z,98470.03
2019-06-27T14:02:06.129Z,98470.42
2019-06-27T14:04:56.155Z,98474.03
2019-06-27T14:07:16.924Z,98474.03
2019-06-27T14:09:56.688Z,98468.56
2019-06-27T14:12:27.484Z,98470.14
2019-06-27T14:15:02.000Z,98454.39
2019-06-27T14:17:36.732Z,98454.39
2019-06-27T14:20:09.884Z,98468.83
2019-06-27T14:22:44.307Z,98461.74
2019-06-27T14:25:18.694Z,98461.74
2019-06-27T14:27:51.707Z,98458.34
2019-06-27T14:30:27.353Z,98457.16
2019-06-27T14:33:01.902Z,98462.23
2019-06-27T14:35:36.272Z,98452.70
2019-06-27T14:38:10.872Z,98451.16
2019-06-27T14:40:46.667Z,98456.75
2019-06-27T14:43:19.875Z,98457.72
2019-06-27T14:46:47.284Z,98456.41
2019-06-27T14:49:23.112Z,98448.14
2019-06-27T14:51:59.284Z,98448.14
2019-06-27T14:54:34.274Z,98450.98
2019-06-27T14:57:09.090Z,98446.22
2019-06-27T14:59:43.668Z,98440.64
2019-06-27T15:03:19.296Z,98434.14
2019-06-27T15:05:54.999Z,98439.52
2019-06-27T15:08:30.304Z,98445.89
2019-06-27T15:11:05.312Z,98445.89
2019-06-27T15:13:40.283Z,98430.12
2019-06-27T15:16:15.311Z,98436.11
2019-06-27T15:18:51.284Z,98430.77
2019-06-27T15:22:21.981Z,98427.41
2019-06-27T15:24:57.353Z,98420.31
2019-06-27T15:27:32.284Z,98433.43
2019-06-27T15:30:07.680Z,98433.43
2019-06-27T15:32:41.162Z,98427.09
2019-06-27T15:35:15.356Z,98417.67
2019-06-27T15:39:20.891Z,98423.75
2019-06-27T15:41:55.461Z,98434.41
2019-06-27T15:44:30.291Z,98424.53
2019-06-27T15:47:05.277Z,98423.77
2019-06-27T15:49:39.964Z,98414.98
2019-06-27T15:52:14.714Z,98425.82
2019-06-27T15:54:47.890Z,98425.16
2019-06-27T15:57:23.091Z,98430.74
2019-06-27T15:59:57.736Z,98425.41
2019-06-27T16:02:32.249Z,98425.41
2019-06-27T16:05:07.363Z,98420.41
2019-06-27T16:07:41.958Z,98416.56
2019-06-27T16:10:16.719Z,98416.88
2019-06-27T16:12:49.883Z,98416.44
2019-06-27T16:15:24.295Z,98407.59
2019-06-27T16:17:58.988Z,98409.16
2019-06-27T16:20:33.699Z,98400.86
2019-06-27T16:23:08.133Z,98400.86
2019-06-27T16:25:42.960Z,98400.13
2019-06-27T16:28:17.332Z,98407.87
2019-06-27T16:30:52.294Z,98395.59
2019-06-27T16:33:26.338Z,98395.59
2019-06-27T16:36:00.960Z,98405.84
2019-06-27T16:38:35.344Z,98404.00
2019-06-27T16:41:09.775Z,98405.09
2019-06-27T16:43:44.689Z,98403.50
2019-06-27T16:46:19.131Z,98394.58
2019-06-27T16:48:53.677Z,98402.27
2019-06-27T16:51:26.675Z,98402.27
2019-06-27T16:54:01.086Z,98401.09
2019-06-27T16:56:35.899Z,98404.28
2019-06-27T16:59:10.346Z,98405.95
2019-06-27T17:01:44.953Z,98410.05
2019-06-27T17:04:19.734Z,98406.92
2019-06-27T17:06:54.331Z,98406.92
2019-06-27T17:09:29.287Z,98403.68
2019-06-27T17:12:03.774Z,98406.67
2019-06-27T17:14:38.443Z,98410.52
2019-06-27T17:17:13.286Z,98413.78
2019-06-27T17:19:47.970Z,98414.02
2019-06-27T17:22:22.658Z,98397.73
2019-06-27T17:24:56.043Z,98395.69
2019-06-27T17:27:30.409Z,98395.69
2019-06-27T17:30:08.336Z,98409.29
2019-06-27T17:32:43.268Z,98411.25
2019-06-27T17:37:40.964Z,98408.94
2019-06-27T17:40:15.962Z,98403.66
2019-06-27T17:42:50.730Z,98407.30
2019-06-27T17:45:26.479Z,98409.83
2019-06-27T17:47:59.803Z,98422.55
2019-06-27T17:50:34.132Z,98413.67
2019-06-27T17:53:10.101Z,98416.75
2019-06-27T17:55:44.952Z,98416.75
2019-06-27T17:58:18.066Z,98422.09
2019-06-27T18:00:52.437Z,98421.11
2019-06-27T18:03:27.300Z,98419.44
2019-06-27T18:06:02.282Z,98415.28
2019-06-27T18:08:36.722Z,98416.80
2019-06-27T18:11:12.331Z,98422.13
2019-06-27T18:13:47.293Z,98422.34
2019-06-27T18:16:22.291Z,98414.01
2019-06-27T18:19:00.431Z,98418.38
2019-06-27T18:21:34.267Z,98418.38
2019-06-27T18:24:08.791Z,98428.23
2019-06-27T18:26:42.296Z,98424.83
2019-06-27T18:29:16.668Z,98421.78
2019-06-27T18:31:51.288Z,98418.74
2019-06-27T18:34:26.112Z,98426.14
2019-06-27T18:37:00.702Z,98426.52
2019-06-27T18:39:35.375Z,98426.52
2019-06-27T18:42:09.961Z,98430.13
2019-06-27T18:44:44.362Z,98441.49
2019-06-27T18:50:05.448Z,98430.11
2019-06-27T18:52:40.512Z,98422.08
2019-06-27T18:55:15.293Z,98422.08
2019-06-27T18:57:49.793Z,98428.14
2019-06-27T19:00:25.926Z,98425.50
2019-06-27T19:03:01.155Z,98436.45
2019-06-27T19:05:36.332Z,98437.57
2019-06-27T19:08:10.871Z,98437.57
2019-06-27T19:10:45.728Z,98438.71
2019-06-27T19:13:19.151Z,98441.89
2019-06-27T19:15:55.288Z,98438.59
2019-06-27T19:18:47.161Z,98438.59
2019-06-27T19:21:27.374Z,98459.27
2019-06-27T19:24:21.895Z,98461.30
2019-06-27T19:26:57.930Z,98462.73
2019-06-27T19:29:32.675Z,98454.94
2019-06-27T19:32:07.124Z,98454.94
2019-06-27T19:34:41.947Z,98464.16
2019-06-27T19:37:16.304Z,98471.30
2019-06-27T19:39:54.329Z,98481.38
2019-06-27T19:44:16.669Z,98490.79
2019-06-27T19:46:50.419Z,98490.79
2019-06-27T19:51:52.301Z,98487.64
2019-06-27T19:54:27.315Z,98487.64
2019-06-27T19:57:02.317Z,98490.38
2019-06-27T19:59:37.407Z,98495.78
2019-06-27T20:02:12.287Z,98508.99
2019-06-27T20:04:47.302Z,98494.94
2019-06-27T20:07:22.294Z,98497.36
2019-06-27T20:09:57.318Z,98510.36
2019-06-27T20:12:32.317Z,98504.83
2019-06-27T20:15:08.885Z,98507.03
2019-06-27T20:17:44.313Z,98507.48
2019-06-27T20:20:19.351Z,98507.48
2019-06-27T20:22:54.305Z,98517.64
2019-06-27T20:25:29.798Z,98516.47
2019-06-27T20:28:04.999Z,98510.05
2019-06-27T20:30:39.881Z,98510.05
2019-06-27T20:33:14.402Z,98511.70
2019-06-27T20:35:49.085Z,98523.68
2019-06-27T20:38:34.384Z,98516.84
2019-06-27T20:40:59.955Z,98516.84
2019-06-27T20:43:34.332Z,98518.36
2019-06-27T20:46:08.976Z,98524.38
2019-06-27T20:48:43.693Z,98517.44
2019-06-27T20:51:16.818Z,98517.44
2019-06-27T20:53:51.280Z,98526.80
2019-06-27T20:56:25.895Z,98526.80
2019-06-27T20:59:00.399Z,98526.45
2019-06-27T21:01:35.124Z,98534.36
2019-06-27T21:04:09.934Z,98535.57
2019-06-27T21:06:44.304Z,98535.57
2019-06-27T21:09:19.973Z,98535.68
2019-06-27T21:11:54.798Z,98530.56
2019-06-27T21:14:27.683Z,98535.02
2019-06-27T21:17:01.961Z,98538.81
2019-06-27T21:19:36.401Z,98544.80
2019-06-27T21:22:10.931Z,98543.60
2019-06-27T21:24:45.366Z,98550.66
2019-06-27T21:27:20.102Z,98547.29
2019-06-27T21:29:54.869Z,98547.29
2019-06-27T21:32:31.869Z,98559.53
2019-06-27T21:35:18.344Z,98562.69
2019-06-27T21:37:53.645Z,98562.69
2019-06-27T21:40:35.312Z,98563.98
2019-06-27T21:43:10.102Z,98561.34
2019-06-27T21:45:44.662Z,98608.61
2019-06-27T21:48:19.285Z,98568.94
2019-06-27T21:50:54.129Z,98573.30
2019-06-27T21:53:29.744Z,98572.98
2019-06-27T21:56:04.191Z,98572.98
2019-06-27T21:58:39.302Z,98577.78
2019-06-27T22:01:14.425Z,98580.53
2019-06-27T22:03:53.794Z,98579.79
2019-06-27T22:06:28.294Z,98585.64
2019-06-27T22:09:04.650Z,98586.13
2019-06-27T22:11:39.246Z,98592.05
2019-06-27T22:14:16.246Z,98588.18
2019-06-27T22:16:51.281Z,98588.18
2019-06-27T22:19:27.302Z,98581.77
2019-06-27T22:22:03.088Z,98587.49
2019-06-27T22:24:38.726Z,98594.50
2019-06-27T22:29:58.494Z,98583.59
2019-06-27T22:32:33.575Z,98588.16
2019-06-27T22:35:43.330Z,98587.56
2019-06-27T22:38:36.437Z,98593.91
2019-06-27T22:41:29.846Z,98594.96
2019-06-27T22:44:20.536Z,98593.43
2019-06-27T22:47:13.915Z,98588.69
2019-06-27T22:49:49.566Z,98596.94
2019-06-27T22:52:54.582Z,98591.33
2019-06-27T22:55:30.543Z,98590.17
2019-06-27T22:58:05.408Z,98582.91
2019-06-27T23:00:40.428Z,98582.91
2019-06-27T23:03:15.599Z,98592.86
2019-06-27T23:05:51.348Z,98593.69
2019-06-27T23:08:29.315Z,98580.20
2019-06-27T23:11:06.961Z,98588.92
2019-06-27T23:13:42.426Z,98588.92
2019-06-27T23:16:18.363Z,98588.92
2019-06-27T23:18:53.526Z,98595.33
2019-06-27T23:23:10.344Z,98593.83
2019-06-27T23:25:45.704Z,98593.83
2019-06-27T23:28:19.045Z,98596.39
2019-06-27T23:30:53.408Z,98591.30
2019-06-27T23:33:28.383Z,98581.84
2019-06-27T23:36:03.365Z,98590.30
2019-06-27T23:38:37.880Z,98590.59
2019-06-27T23:41:16.394Z,98592.75
2019-06-27T23:46:34.146Z,98596.42
2019-06-27T23:49:09.582Z,98600.31
2019-06-27T23:51:44.279Z,98600.31
2019-06-27T23:54:18.920Z,98596.34
2019-06-27T23:56:54.304Z,98585.89
2019-06-27T23:59:29.408Z,98597.16
